sensor_id;sensor_type;location;lat;lon;timestamp;pressure;altitude;pressure_sealevel;temperature;humidity
76726;BME280;65651;53.154;17.916;2023-11-21T00:00:53;100415.08;;;0.11;93.92
76726;BME280;65651;53.154;17.916;2023-11-21T00:03:37;100418.27;;;0.14;93.90
76726;BME280;65651;53.154;17.916;2023-11-21T00:06:05;100425.20;;;0.14;94.04
76726;BME280;65651;53.154;17.916;2023-11-21T00:08:37;100431.30;;;0.11;94.01
76726;BME280;65651;53.154;17.916;2023-11-21T00:11:05;100429.23;;;0.10;94.14
76726;BME280;65651;53.154;17.916;2023-11-21T00:13:32;100430.52;;;0.10;93.88
76726;BME280;65651;53.154;17.916;2023-11-21T00:16:02;100433.52;;;0.10;93.97
76726;BME280;65651;53.154;17.916;2023-11-21T00:18:31;100436.47;;;0.08;94.20
76726;BME280;65651;53.154;17.916;2023-11-21T00:20:58;100439.73;;;0.06;94.19
76726;BME280;65651;53.154;17.916;2023-11-21T00:23:26;100440.77;;;0.06;94.25
76726;BME280;65651;53.154;17.916;2023-11-21T00:25:53;100443.83;;;0.05;94.12
76726;BME280;65651;53.154;17.916;2023-11-21T00:28:21;100440.93;;;0.03;94.16
76726;BME280;65651;53.154;17.916;2023-11-21T00:30:49;100441.30;;;0.03;94.07
76726;BME280;65651;53.154;17.916;2023-11-21T00:33:16;100440.86;;;0.02;94.04
76726;BME280;65651;53.154;17.916;2023-11-21T00:35:44;100444.06;;;0.01;94.14
76726;BME280;65651;53.154;17.916;2023-11-21T00:38:11;100445.77;;;-0.02;94.07
76726;BME280;65651;53.154;17.916;2023-11-21T00:40:39;100452.98;;;-0.02;94.07
76726;BME280;65651;53.154;17.916;2023-11-21T00:43:06;100456.77;;;-0.03;94.07
76726;BME280;65651;53.154;17.916;2023-11-21T00:45:33;100457.40;;;-0.01;94.16
76726;BME280;65651;53.154;17.916;2023-11-21T00:48:03;100464.94;;;-0.00;94.38
76726;BME280;65651;53.154;17.916;2023-11-21T00:50:32;100465.31;;;-0.01;94.22
76726;BME280;65651;53.154;17.916;2023-11-21T00:52:59;100467.48;;;-0.02;94.32
76726;BME280;65651;53.154;17.916;2023-11-21T00:55:27;100468.87;;;-0.02;94.29
76726;BME280;65651;53.154;17.916;2023-11-21T00:57:55;100472.36;;;-0.01;94.23
76726;BME280;65651;53.154;17.916;2023-11-21T01:00:22;100470.08;;;-0.01;94.34
76726;BME280;65651;53.154;17.916;2023-11-21T01:02:50;100471.73;;;-0.02;94.01
76726;BME280;65651;53.154;17.916;2023-11-21T01:05:18;100478.86;;;-0.03;94.22
76726;BME280;65651;53.154;17.916;2023-11-21T01:07:47;100485.05;;;-0.07;94.29
76726;BME280;65651;53.154;17.916;2023-11-21T01:10:17;100483.80;;;-0.10;94.28
76726;BME280;65651;53.154;17.916;2023-11-21T01:12:45;100481.96;;;-0.12;94.22
76726;BME280;65651;53.154;17.916;2023-11-21T01:15:12;100487.50;;;-0.13;94.10
76726;BME280;65651;53.154;17.916;2023-11-21T01:17:40;100493.11;;;-0.16;94.26
76726;BME280;65651;53.154;17.916;2023-11-21T01:20:08;100498.50;;;-0.17;94.09
76726;BME280;65651;53.154;17.916;2023-11-21T01:22:41;100499.45;;;-0.19;94.29
76726;BME280;65651;53.154;17.916;2023-11-21T01:25:08;100497.44;;;-0.21;94.01
76726;BME280;65651;53.154;17.916;2023-11-21T01:27:36;100499.79;;;-0.22;94.14
76726;BME280;65651;53.154;17.916;2023-11-21T01:30:04;100500.38;;;-0.23;94.19
76726;BME280;65651;53.154;17.916;2023-11-21T01:32:34;100498.35;;;-0.25;94.18
76726;BME280;65651;53.154;17.916;2023-11-21T01:35:01;100499.81;;;-0.29;94.02
76726;BME280;65651;53.154;17.916;2023-11-21T01:37:28;100504.17;;;-0.25;94.04
76726;BME280;65651;53.154;17.916;2023-11-21T01:39:59;100507.20;;;-0.26;94.17
76726;BME280;65651;53.154;17.916;2023-11-21T01:42:28;100505.32;;;-0.30;94.15
76726;BME280;65651;53.154;17.916;2023-11-21T01:44:56;100509.79;;;-0.28;94.11
76726;BME280;65651;53.154;17.916;2023-11-21T01:47:23;100517.52;;;-0.28;94.17
76726;BME280;65651;53.154;17.916;2023-11-21T01:49:51;100522.98;;;-0.30;93.92
76726;BME280;65651;53.154;17.916;2023-11-21T01:52:19;100524.30;;;-0.29;94.20
76726;BME280;65651;53.154;17.916;2023-11-21T01:54:46;100525.23;;;-0.30;94.03
76726;BME280;65651;53.154;17.916;2023-11-21T01:57:14;100528.11;;;-0.31;94.09
76726;BME280;65651;53.154;17.916;2023-11-21T01:59:44;100527.02;;;-0.30;94.08
76726;BME280;65651;53.154;17.916;2023-11-21T02:02:12;100527.02;;;-0.30;94.14
76726;BME280;65651;53.154;17.916;2023-11-21T02:04:40;100531.10;;;-0.31;94.11
76726;BME280;65651;53.154;17.916;2023-11-21T02:07:08;100533.02;;;-0.34;94.05
76726;BME280;65651;53.154;17.916;2023-11-21T02:09:36;100532.45;;;-0.36;94.01
76726;BME280;65651;53.154;17.916;2023-11-21T02:12:10;100533.03;;;-0.38;94.08
76726;BME280;65651;53.154;17.916;2023-11-21T02:14:38;100536.59;;;-0.38;94.18
76726;BME280;65651;53.154;17.916;2023-11-21T02:17:05;100532.05;;;-0.39;94.02
76726;BME280;65651;53.154;17.916;2023-11-21T02:19:33;100529.05;;;-0.39;94.06
76726;BME280;65651;53.154;17.916;2023-11-21T02:22:02;100527.20;;;-0.37;94.03
76726;BME280;65651;53.154;17.916;2023-11-21T02:24:33;100529.48;;;-0.37;93.92
76726;BME280;65651;53.154;17.916;2023-11-21T02:27:02;100532.90;;;-0.38;94.13
76726;BME280;65651;53.154;17.916;2023-11-21T02:29:30;100537.44;;;-0.41;93.99
76726;BME280;65651;53.154;17.916;2023-11-21T02:31:57;100539.70;;;-0.43;93.97
76726;BME280;65651;53.154;17.916;2023-11-21T02:34:25;100538.60;;;-0.46;94.09
76726;BME280;65651;53.154;17.916;2023-11-21T02:36:53;100543.15;;;-0.49;94.04
76726;BME280;65651;53.154;17.916;2023-11-21T02:39:20;100546.27;;;-0.51;94.03
76726;BME280;65651;53.154;17.916;2023-11-21T02:41:50;100546.11;;;-0.55;93.96
76726;BME280;65651;53.154;17.916;2023-11-21T02:44:17;100549.15;;;-0.56;93.92
76726;BME280;65651;53.154;17.916;2023-11-21T02:46:45;100549.68;;;-0.57;93.97
76726;BME280;65651;53.154;17.916;2023-11-21T02:49:14;100549.59;;;-0.58;94.00
76726;BME280;65651;53.154;17.916;2023-11-21T02:51:41;100555.52;;;-0.60;93.96
76726;BME280;65651;53.154;17.916;2023-11-21T02:54:09;100558.72;;;-0.60;93.89
76726;BME280;65651;53.154;17.916;2023-11-21T02:56:36;100560.73;;;-0.62;93.96
76726;BME280;65651;53.154;17.916;2023-11-21T02:59:04;100561.86;;;-0.64;93.89
76726;BME280;65651;53.154;17.916;2023-11-21T03:01:31;100562.79;;;-0.64;93.92
76726;BME280;65651;53.154;17.916;2023-11-21T03:03:59;100567.11;;;-0.66;93.92
76726;BME280;65651;53.154;17.916;2023-11-21T03:06:29;100566.23;;;-0.66;93.94
76726;BME280;65651;53.154;17.916;2023-11-21T03:08:57;100568.02;;;-0.67;93.85
76726;BME280;65651;53.154;17.916;2023-11-21T03:11:24;100573.85;;;-0.67;93.99
76726;BME280;65651;53.154;17.916;2023-11-21T03:13:52;100574.23;;;-0.68;93.90
76726;BME280;65651;53.154;17.916;2023-11-21T03:16:19;100579.39;;;-0.69;93.94
76726;BME280;65651;53.154;17.916;2023-11-21T03:18:47;100589.44;;;-0.69;93.77
76726;BME280;65651;53.154;17.916;2023-11-21T03:21:15;100583.84;;;-0.69;93.84
76726;BME280;65651;53.154;17.916;2023-11-21T03:23:42;100585.06;;;-0.70;93.98
76726;BME280;65651;53.154;17.916;2023-11-21T03:26:13;100592.09;;;-0.69;93.74
76726;BME280;65651;53.154;17.916;2023-11-21T03:28:41;100593.63;;;-0.71;93.71
76726;BME280;65651;53.154;17.916;2023-11-21T03:31:08;100594.43;;;-0.73;93.78
76726;BME280;65651;53.154;17.916;2023-11-21T03:33:39;100597.25;;;-0.73;93.78
76726;BME280;65651;53.154;17.916;2023-11-21T03:36:07;100602.14;;;-0.72;93.71
76726;BME280;65651;53.154;17.916;2023-11-21T03:38:35;100608.16;;;-0.73;93.45
76726;BME280;65651;53.154;17.916;2023-11-21T03:41:03;100606.76;;;-0.73;93.55
76726;BME280;65651;53.154;17.916;2023-11-21T03:43:31;100606.78;;;-0.74;93.63
76726;BME280;65651;53.154;17.916;2023-11-21T03:45:59;100607.86;;;-0.74;93.38
76726;BME280;65651;53.154;17.916;2023-11-21T03:48:26;100606.69;;;-0.76;93.45
76726;BME280;65651;53.154;17.916;2023-11-21T03:50:54;100599.28;;;-0.75;93.56
76726;BME280;65651;53.154;17.916;2023-11-21T03:53:21;100595.59;;;-0.75;93.54
76726;BME280;65651;53.154;17.916;2023-11-21T03:55:48;100598.10;;;-0.76;93.45
76726;BME280;65651;53.154;17.916;2023-11-21T03:58:17;100595.17;;;-0.77;93.47
76726;BME280;65651;53.154;17.916;2023-11-21T04:00:45;100599.00;;;-0.77;93.44
76726;BME280;65651;53.154;17.916;2023-11-21T04:03:13;100600.59;;;-0.77;93.45
76726;BME280;65651;53.154;17.916;2023-11-21T04:05:41;100608.80;;;-0.75;93.49
76726;BME280;65651;53.154;17.916;2023-11-21T04:08:08;100608.05;;;-0.75;93.40
76726;BME280;65651;53.154;17.916;2023-11-21T04:10:35;100613.46;;;-0.74;93.37
76726;BME280;65651;53.154;17.916;2023-11-21T04:13:03;100614.95;;;-0.75;93.51
76726;BME280;65651;53.154;17.916;2023-11-21T04:15:32;100621.85;;;-0.72;93.38
76726;BME280;65651;53.154;17.916;2023-11-21T04:18:00;100626.23;;;-0.71;93.54
76726;BME280;65651;53.154;17.916;2023-11-21T04:20:27;100628.41;;;-0.72;93.35
76726;BME280;65651;53.154;17.916;2023-11-21T04:22:54;100628.31;;;-0.74;93.36
76726;BME280;65651;53.154;17.916;2023-11-21T04:25:22;100626.94;;;-0.75;93.45
76726;BME280;65651;53.154;17.916;2023-11-21T04:27:50;100630.79;;;-0.78;93.38
76726;BME280;65651;53.154;17.916;2023-11-21T04:30:18;100631.40;;;-0.80;93.35
76726;BME280;65651;53.154;17.916;2023-11-21T04:32:45;100637.23;;;-0.80;93.33
76726;BME280;65651;53.154;17.916;2023-11-21T04:35:12;100638.14;;;-0.81;93.24
76726;BME280;65651;53.154;17.916;2023-11-21T04:37:40;100638.39;;;-0.83;93.38
76726;BME280;65651;53.154;17.916;2023-11-21T04:40:08;100640.40;;;-0.84;93.44
76726;BME280;65651;53.154;17.916;2023-11-21T04:42:36;100639.76;;;-0.85;93.13
76726;BME280;65651;53.154;17.916;2023-11-21T04:45:07;100646.83;;;-0.86;93.29
76726;BME280;65651;53.154;17.916;2023-11-21T04:47:38;100652.02;;;-0.91;93.26
76726;BME280;65651;53.154;17.916;2023-11-21T04:50:09;100652.75;;;-0.92;93.19
76726;BME280;65651;53.154;17.916;2023-11-21T04:52:36;100657.35;;;-0.92;93.20
76726;BME280;65651;53.154;17.916;2023-11-21T04:55:04;100663.02;;;-0.93;93.05
76726;BME280;65651;53.154;17.916;2023-11-21T04:57:33;100670.82;;;-0.94;93.05
76726;BME280;65651;53.154;17.916;2023-11-21T05:00:01;100676.63;;;-0.94;93.13
76726;BME280;65651;53.154;17.916;2023-11-21T05:02:28;100684.33;;;-0.96;92.96
76726;BME280;65651;53.154;17.916;2023-11-21T05:04:56;100681.77;;;-0.98;92.97
76726;BME280;65651;53.154;17.916;2023-11-21T05:07:23;100685.44;;;-0.98;92.83
76726;BME280;65651;53.154;17.916;2023-11-21T05:09:51;100687.55;;;-0.97;92.80
76726;BME280;65651;53.154;17.916;2023-11-21T05:12:18;100691.36;;;-0.96;92.81
76726;BME280;65651;53.154;17.916;2023-11-21T05:14:46;100686.04;;;-0.95;92.97
76726;BME280;65651;53.154;17.916;2023-11-21T05:17:14;100685.83;;;-0.95;92.98
76726;BME280;65651;53.154;17.916;2023-11-21T05:19:41;100686.06;;;-0.95;92.99
76726;BME280;65651;53.154;17.916;2023-11-21T05:22:08;100687.35;;;-0.97;92.91
76726;BME280;65651;53.154;17.916;2023-11-21T05:24:38;100689.14;;;-0.97;92.84
76726;BME280;65651;53.154;17.916;2023-11-21T05:27:08;100692.08;;;-0.96;92.88
76726;BME280;65651;53.154;17.916;2023-11-21T05:29:37;100697.22;;;-0.97;92.79
76726;BME280;65651;53.154;17.916;2023-11-21T05:32:08;100702.40;;;-0.98;92.76
76726;BME280;65651;53.154;17.916;2023-11-21T05:34:36;100709.89;;;-0.97;92.83
76726;BME280;65651;53.154;17.916;2023-11-21T05:37:04;100714.25;;;-0.96;92.73
76726;BME280;65651;53.154;17.916;2023-11-21T05:39:32;100711.92;;;-0.95;92.80
76726;BME280;65651;53.154;17.916;2023-11-21T05:41:59;100716.52;;;-0.95;92.86
76726;BME280;65651;53.154;17.916;2023-11-21T05:44:27;100718.72;;;-0.97;92.71
76726;BME280;65651;53.154;17.916;2023-11-21T05:46:54;100721.06;;;-0.94;92.69
76726;BME280;65651;53.154;17.916;2023-11-21T05:49:22;100721.03;;;-0.98;92.77
76726;BME280;65651;53.154;17.916;2023-11-21T05:51:49;100730.06;;;-0.95;92.73
76726;BME280;65651;53.154;17.916;2023-11-21T05:54:16;100731.65;;;-0.95;92.70
76726;BME280;65651;53.154;17.916;2023-11-21T05:56:44;100735.41;;;-0.96;92.86
76726;BME280;65651;53.154;17.916;2023-11-21T05:59:11;100741.86;;;-0.98;92.55
76726;BME280;65651;53.154;17.916;2023-11-21T06:01:38;100745.20;;;-1.02;92.51
76726;BME280;65651;53.154;17.916;2023-11-21T06:04:06;100751.07;;;-1.03;92.51
76726;BME280;65651;53.154;17.916;2023-11-21T06:06:35;100754.90;;;-1.02;92.53
76726;BME280;65651;53.154;17.916;2023-11-21T06:09:03;100759.87;;;-1.03;92.51
76726;BME280;65651;53.154;17.916;2023-11-21T06:11:30;100760.54;;;-1.02;92.55
76726;BME280;65651;53.154;17.916;2023-11-21T06:13:58;100763.92;;;-1.03;92.52
76726;BME280;65651;53.154;17.916;2023-11-21T06:16:25;100771.77;;;-1.02;92.40
76726;BME280;65651;53.154;17.916;2023-11-21T06:18:52;100775.37;;;-1.03;92.39
76726;BME280;65651;53.154;17.916;2023-11-21T06:21:20;100771.24;;;-1.09;92.38
76726;BME280;65651;53.154;17.916;2023-11-21T06:23:47;100784.94;;;-1.08;92.25
76726;BME280;65651;53.154;17.916;2023-11-21T06:26:15;100788.70;;;-1.11;92.37
76726;BME280;65651;53.154;17.916;2023-11-21T06:28:42;100792.59;;;-1.10;92.46
76726;BME280;65651;53.154;17.916;2023-11-21T06:31:09;100798.23;;;-1.10;92.45
76726;BME280;65651;53.154;17.916;2023-11-21T06:33:39;100799.68;;;-1.12;92.19
76726;BME280;65651;53.154;17.916;2023-11-21T06:36:08;100799.66;;;-1.15;92.33
76726;BME280;65651;53.154;17.916;2023-11-21T06:38:37;100806.63;;;-1.13;92.30
76726;BME280;65651;53.154;17.916;2023-11-21T06:41:06;100811.73;;;-1.09;92.23
76726;BME280;65651;53.154;17.916;2023-11-21T06:43:34;100811.06;;;-1.10;92.33
76726;BME280;65651;53.154;17.916;2023-11-21T06:46:01;100815.27;;;-1.10;92.17
76726;BME280;65651;53.154;17.916;2023-11-21T06:48:29;100815.41;;;-1.09;92.06
76726;BME280;65651;53.154;17.916;2023-11-21T06:50:57;100819.42;;;-1.08;92.16
76726;BME280;65651;53.154;17.916;2023-11-21T06:53:24;100823.97;;;-1.07;92.29
76726;BME280;65651;53.154;17.916;2023-11-21T06:55:51;100826.48;;;-1.08;92.06
76726;BME280;65651;53.154;17.916;2023-11-21T06:58:19;100834.58;;;-1.08;92.04
76726;BME280;65651;53.154;17.916;2023-11-21T07:00:46;100840.94;;;-1.08;92.06
76726;BME280;65651;53.154;17.916;2023-11-21T07:03:17;100843.27;;;-1.09;91.89
76726;BME280;65651;53.154;17.916;2023-11-21T07:05:46;100845.54;;;-1.09;91.85
76726;BME280;65651;53.154;17.916;2023-11-21T07:08:15;100849.27;;;-1.05;91.89
76726;BME280;65651;53.154;17.916;2023-11-21T07:10:42;100850.45;;;-1.04;91.67
76726;BME280;65651;53.154;17.916;2023-11-21T07:13:10;100850.80;;;-1.04;91.75
76726;BME280;65651;53.154;17.916;2023-11-21T07:15:40;100855.04;;;-1.04;91.66
76726;BME280;65651;53.154;17.916;2023-11-21T07:18:07;100858.56;;;-1.04;91.48
76726;BME280;65651;53.154;17.916;2023-11-21T07:20:35;100862.98;;;-1.05;91.51
76726;BME280;65651;53.154;17.916;2023-11-21T07:23:02;100865.26;;;-1.04;91.31
76726;BME280;65651;53.154;17.916;2023-11-21T07:25:32;100865.96;;;-1.05;91.13
76726;BME280;65651;53.154;17.916;2023-11-21T07:28:00;100869.83;;;-1.04;91.13
76726;BME280;65651;53.154;17.916;2023-11-21T07:30:29;100868.92;;;-1.03;90.96
76726;BME280;65651;53.154;17.916;2023-11-21T07:32:58;100872.70;;;-1.01;91.17
76726;BME280;65651;53.154;17.916;2023-11-21T07:35:26;100879.64;;;-0.99;90.96
76726;BME280;65651;53.154;17.916;2023-11-21T07:37:53;100877.58;;;-1.00;90.73
76726;BME280;65651;53.154;17.916;2023-11-21T07:40:21;100882.96;;;-0.98;90.74
76726;BME280;65651;53.154;17.916;2023-11-21T07:42:49;100880.67;;;-0.94;90.60
76726;BME280;65651;53.154;17.916;2023-11-21T07:45:19;100878.51;;;-0.89;90.55
76726;BME280;65651;53.154;17.916;2023-11-21T07:47:47;100875.53;;;-0.82;90.44
76726;BME280;65651;53.154;17.916;2023-11-21T07:50:15;100882.13;;;-0.75;90.12
76726;BME280;65651;53.154;17.916;2023-11-21T07:52:42;100884.95;;;-0.71;90.19
76726;BME280;65651;53.154;17.916;2023-11-21T07:55:09;100890.52;;;-0.70;89.86
76726;BME280;65651;53.154;17.916;2023-11-21T07:57:37;100890.20;;;-0.66;89.82
76726;BME280;65651;53.154;17.916;2023-11-21T08:00:06;100886.55;;;-0.64;89.83
76726;BME280;65651;53.154;17.916;2023-11-21T08:02:40;100890.12;;;-0.57;89.65
76726;BME280;65651;53.154;17.916;2023-11-21T08:05:13;100893.80;;;-0.48;89.46
76726;BME280;65651;53.154;17.916;2023-11-21T08:07:40;100892.05;;;-0.41;89.27
76726;BME280;65651;53.154;17.916;2023-11-21T08:10:08;100891.54;;;-0.34;89.10
76726;BME280;65651;53.154;17.916;2023-11-21T08:12:37;100897.83;;;-0.24;88.89
76726;BME280;65651;53.154;17.916;2023-11-21T08:15:06;100896.85;;;-0.18;89.02
76726;BME280;65651;53.154;17.916;2023-11-21T08:17:37;100903.06;;;-0.15;88.77
76726;BME280;65651;53.154;17.916;2023-11-21T08:20:05;100896.20;;;-0.12;88.58
76726;BME280;65651;53.154;17.916;2023-11-21T08:22:33;100903.29;;;-0.09;88.63
76726;BME280;65651;53.154;17.916;2023-11-21T08:25:01;100905.92;;;-0.05;88.46
76726;BME280;65651;53.154;17.916;2023-11-21T08:27:30;100905.03;;;-0.01;88.30
76726;BME280;65651;53.154;17.916;2023-11-21T08:29:57;100904.59;;;0.05;88.34
76726;BME280;65651;53.154;17.916;2023-11-21T08:32:25;100900.74;;;0.11;88.44
76726;BME280;65651;53.154;17.916;2023-11-21T08:34:53;100901.41;;;0.20;88.47
76726;BME280;65651;53.154;17.916;2023-11-21T08:37:20;100906.96;;;0.29;88.09
76726;BME280;65651;53.154;17.916;2023-11-21T08:39:48;100917.27;;;0.39;87.83
76726;BME280;65651;53.154;17.916;2023-11-21T08:42:19;100905.53;;;0.47;87.57
76726;BME280;65651;53.154;17.916;2023-11-21T08:44:47;100911.06;;;0.68;87.54
76726;BME280;65651;53.154;17.916;2023-11-21T08:47:14;100913.02;;;0.86;87.46
76726;BME280;65651;53.154;17.916;2023-11-21T08:49:41;100903.83;;;1.03;87.63
76726;BME280;65651;53.154;17.916;2023-11-21T08:52:09;100899.13;;;1.16;87.23
76726;BME280;65651;53.154;17.916;2023-11-21T08:54:36;100907.38;;;1.17;86.36
76726;BME280;65651;53.154;17.916;2023-11-21T08:57:04;100907.08;;;1.22;86.75
76726;BME280;65651;53.154;17.916;2023-11-21T08:59:32;100905.27;;;1.23;86.52
76726;BME280;65651;53.154;17.916;2023-11-21T09:02:00;100911.54;;;1.21;86.60
76726;BME280;65651;53.154;17.916;2023-11-21T09:04:27;100926.89;;;1.19;86.52
76726;BME280;65651;53.154;17.916;2023-11-21T09:06:55;100929.03;;;1.15;86.47
76726;BME280;65651;53.154;17.916;2023-11-21T09:09:22;100930.31;;;1.18;86.47
76726;BME280;65651;53.154;17.916;2023-11-21T09:11:51;100930.27;;;1.15;86.44
76726;BME280;65651;53.154;17.916;2023-11-21T09:14:19;100938.15;;;1.10;85.98
76726;BME280;65651;53.154;17.916;2023-11-21T09:16:46;100938.64;;;1.03;86.24
76726;BME280;65651;53.154;17.916;2023-11-21T09:19:14;100936.50;;;0.97;85.48
76726;BME280;65651;53.154;17.916;2023-11-21T09:21:41;100942.77;;;0.88;85.46
76726;BME280;65651;53.154;17.916;2023-11-21T09:24:09;100943.59;;;0.83;85.47
76726;BME280;65651;53.154;17.916;2023-11-21T09:26:36;100940.54;;;0.80;85.86
76726;BME280;65651;53.154;17.916;2023-11-21T09:29:04;100946.27;;;0.89;86.14
76726;BME280;65651;53.154;17.916;2023-11-21T09:31:32;100948.91;;;0.89;85.54
76726;BME280;65651;53.154;17.916;2023-11-21T09:34:00;100950.50;;;0.86;85.49
76726;BME280;65651;53.154;17.916;2023-11-21T09:36:29;100959.09;;;0.76;85.28
76726;BME280;65651;53.154;17.916;2023-11-21T09:38:57;100963.48;;;0.73;85.44
76726;BME280;65651;53.154;17.916;2023-11-21T09:41:38;100963.42;;;0.70;85.60
76726;BME280;65651;53.154;17.916;2023-11-21T09:44:08;100967.17;;;0.66;85.80
76726;BME280;65651;53.154;17.916;2023-11-21T09:46:41;100973.56;;;0.69;85.76
76726;BME280;65651;53.154;17.916;2023-11-21T09:49:09;100969.73;;;0.68;86.01
76726;BME280;65651;53.154;17.916;2023-11-21T09:51:42;100968.86;;;0.68;85.79
76726;BME280;65651;53.154;17.916;2023-11-21T09:54:14;100968.05;;;0.63;85.48
76726;BME280;65651;53.154;17.916;2023-11-21T09:56:43;100981.98;;;0.56;85.15
76726;BME280;65651;53.154;17.916;2023-11-21T09:59:13;100971.17;;;0.52;85.34
76726;BME280;65651;53.154;17.916;2023-11-21T10:01:42;100970.87;;;0.55;85.31
76726;BME280;65651;53.154;17.916;2023-11-21T10:04:13;100969.91;;;0.53;85.20
76726;BME280;65651;53.154;17.916;2023-11-21T10:06:41;100969.90;;;0.53;85.07
76726;BME280;65651;53.154;17.916;2023-11-21T10:09:10;100971.40;;;0.55;85.44
76726;BME280;65651;53.154;17.916;2023-11-21T10:11:40;100974.55;;;0.56;85.37
76726;BME280;65651;53.154;17.916;2023-11-21T10:14:10;100979.86;;;0.56;85.30
76726;BME280;65651;53.154;17.916;2023-11-21T10:16:40;100979.45;;;0.53;84.89
76726;BME280;65651;53.154;17.916;2023-11-21T10:19:10;100975.63;;;0.52;84.89
76726;BME280;65651;53.154;17.916;2023-11-21T10:21:38;100980.32;;;0.53;85.00
76726;BME280;65651;53.154;17.916;2023-11-21T10:24:07;100979.06;;;0.54;84.93
76726;BME280;65651;53.154;17.916;2023-11-21T10:26:34;100984.64;;;0.56;85.03
76726;BME280;65651;53.154;17.916;2023-11-21T10:29:03;100987.63;;;0.56;85.13
76726;BME280;65651;53.154;17.916;2023-11-21T10:31:30;100987.34;;;0.54;84.88
76726;BME280;65651;53.154;17.916;2023-11-21T10:34:31;100992.38;;;0.52;85.05
76726;BME280;65651;53.154;17.916;2023-11-21T10:36:58;100996.55;;;0.46;84.74
76726;BME280;65651;53.154;17.916;2023-11-21T10:39:38;100999.34;;;0.39;85.11
76726;BME280;65651;53.154;17.916;2023-11-21T10:42:08;101004.73;;;0.34;85.21
76726;BME280;65651;53.154;17.916;2023-11-21T10:44:37;100998.69;;;0.27;85.21
76726;BME280;65651;53.154;17.916;2023-11-21T10:47:05;101007.40;;;0.30;85.23
76726;BME280;65651;53.154;17.916;2023-11-21T10:49:36;101011.50;;;0.25;85.09
76726;BME280;65651;53.154;17.916;2023-11-21T10:52:06;101010.98;;;0.21;85.01
76726;BME280;65651;53.154;17.916;2023-11-21T10:54:33;101010.20;;;0.18;85.08
76726;BME280;65651;53.154;17.916;2023-11-21T10:57:04;101005.45;;;0.18;85.02
76726;BME280;65651;53.154;17.916;2023-11-21T10:59:31;101004.55;;;0.14;85.19
76726;BME280;65651;53.154;17.916;2023-11-21T11:02:01;101008.25;;;0.15;85.04
76726;BME280;65651;53.154;17.916;2023-11-21T11:04:30;101005.77;;;0.19;85.05
76726;BME280;65651;53.154;17.916;2023-11-21T11:07:02;101008.96;;;0.22;85.16
76726;BME280;65651;53.154;17.916;2023-11-21T11:09:31;101007.75;;;0.26;85.35
76726;BME280;65651;53.154;17.916;2023-11-21T11:12:02;101010.91;;;0.26;84.95
76726;BME280;65651;53.154;17.916;2023-11-21T11:14:34;101018.14;;;0.26;85.18
76726;BME280;65651;53.154;17.916;2023-11-21T11:17:02;101023.17;;;0.24;84.84
76726;BME280;65651;53.154;17.916;2023-11-21T11:19:33;101023.01;;;0.20;84.79
76726;BME280;65651;53.154;17.916;2023-11-21T11:22:34;101030.66;;;0.23;84.72
76726;BME280;65651;53.154;17.916;2023-11-21T11:28:04;101037.70;;;0.23;84.64
76726;BME280;65651;53.154;17.916;2023-11-21T11:33:58;101054.84;;;0.19;83.86
76726;BME280;65651;53.154;17.916;2023-11-21T11:37:03;101055.59;;;0.17;83.86
76726;BME280;65651;53.154;17.916;2023-11-21T11:39:40;101065.16;;;0.13;83.61
76726;BME280;65651;53.154;17.916;2023-11-21T11:42:14;101070.70;;;0.11;83.60
76726;BME280;65651;53.154;17.916;2023-11-21T11:47:26;101078.45;;;0.16;83.93
76726;BME280;65651;53.154;17.916;2023-11-21T11:55:12;101084.71;;;0.06;83.16
76726;BME280;65651;53.154;17.916;2023-11-21T11:57:41;101086.56;;;0.04;83.21
76726;BME280;65651;53.154;17.916;2023-11-21T12:03:01;101084.04;;;0.02;83.54
76726;BME280;65651;53.154;17.916;2023-11-21T12:05:35;101082.58;;;0.03;83.58
76726;BME280;65651;53.154;17.916;2023-11-21T12:08:07;101085.25;;;0.02;83.55
76726;BME280;65651;53.154;17.916;2023-11-21T12:10:37;101083.30;;;0.02;83.62
76726;BME280;65651;53.154;17.916;2023-11-21T12:13:08;101089.83;;;0.02;83.88
76726;BME280;65651;53.154;17.916;2023-11-21T12:15:38;101089.73;;;0.01;83.96
76726;BME280;65651;53.154;17.916;2023-11-21T12:18:07;101091.45;;;-0.03;83.52
76726;BME280;65651;53.154;17.916;2023-11-21T12:20:35;101092.11;;;-0.02;83.54
76726;BME280;65651;53.154;17.916;2023-11-21T12:23:09;101094.85;;;0.00;83.65
76726;BME280;65651;53.154;17.916;2023-11-21T12:25:38;101090.63;;;0.00;83.77
76726;BME280;65651;53.154;17.916;2023-11-21T12:28:06;101091.79;;;-0.03;83.44
76726;BME280;65651;53.154;17.916;2023-11-21T12:30:35;101088.10;;;-0.07;83.31
76726;BME280;65651;53.154;17.916;2023-11-21T12:33:04;101088.27;;;-0.07;83.41
76726;BME280;65651;53.154;17.916;2023-11-21T12:35:34;101090.66;;;-0.05;83.47
76726;BME280;65651;53.154;17.916;2023-11-21T12:38:03;101090.48;;;-0.01;83.39
76726;BME280;65651;53.154;17.916;2023-11-21T12:40:31;101089.18;;;0.01;83.52
76726;BME280;65651;53.154;17.916;2023-11-21T12:43:00;101091.26;;;0.02;83.60
76726;BME280;65651;53.154;17.916;2023-11-21T12:45:31;101096.84;;;0.03;83.59
76726;BME280;65651;53.154;17.916;2023-11-21T12:48:03;101106.61;;;0.06;83.39
76726;BME280;65651;53.154;17.916;2023-11-21T12:50:35;101111.10;;;0.08;83.42
76726;BME280;65651;53.154;17.916;2023-11-21T12:53:07;101112.11;;;0.09;83.56
76726;BME280;65651;53.154;17.916;2023-11-21T12:55:39;101125.04;;;0.12;83.84
76726;BME280;65651;53.154;17.916;2023-11-21T12:58:09;101128.11;;;0.15;83.44
76726;BME280;65651;53.154;17.916;2023-11-21T13:00:39;101126.37;;;0.14;83.16
76726;BME280;65651;53.154;17.916;2023-11-21T13:03:10;101129.91;;;0.14;83.15
76726;BME280;65651;53.154;17.916;2023-11-21T13:05:40;101131.79;;;0.15;83.26
76726;BME280;65651;53.154;17.916;2023-11-21T13:08:14;101134.34;;;0.17;83.32